createdAt,value
2022-12-18T00:02:13.155Z,42.22
2022-12-18T00:04:40.265Z,43.03
2022-12-18T00:07:07.456Z,45.13
2022-12-18T00:09:39.654Z,39.33
2022-12-18T00:14:45.729Z,41.00
2022-12-18T00:17:12.939Z,41.88
2022-12-18T00:19:40.083Z,43.35
2022-12-18T00:22:07.493Z,41.95
2022-12-18T00:24:34.697Z,41.13
2022-12-18T00:27:01.923Z,47.30
2022-12-18T00:29:29.063Z,39.53
2022-12-18T00:31:56.285Z,41.70
2022-12-18T00:34:23.454Z,40.50
2022-12-18T00:36:50.561Z,38.20
2022-12-18T00:39:18.367Z,40.50
2022-12-18T00:42:04.666Z,40.72
2022-12-18T00:44:31.921Z,40.83
2022-12-18T00:46:59.156Z,37.53
2022-12-18T00:49:26.313Z,42.58
2022-12-18T00:51:53.641Z,44.88
2022-12-18T00:54:20.812Z,37.10
2022-12-18T00:56:49.835Z,42.17
2022-12-18T00:59:18.278Z,40.05
2022-12-18T01:01:46.007Z,40.40
2022-12-18T01:04:13.302Z,39.83
2022-12-18T01:06:40.518Z,32.38
2022-12-18T01:09:07.653Z,22.88
2022-12-18T01:11:34.913Z,38.38
2022-12-18T01:14:02.356Z,38.60
2022-12-18T01:16:29.589Z,41.20
2022-12-18T01:18:56.896Z,37.03
2022-12-18T01:21:25.060Z,35.65
2022-12-18T01:23:56.477Z,38.58
2022-12-18T01:26:23.892Z,32.72
2022-12-18T01:28:51.076Z,34.67
2022-12-18T01:31:20.510Z,36.53
2022-12-18T01:33:50.977Z,40.80
2022-12-18T01:36:22.862Z,38.40
2022-12-18T01:38:50.422Z,45.13
2022-12-18T01:41:18.581Z,40.17
2022-12-18T01:43:50.916Z,47.00
2022-12-18T01:46:18.587Z,40.05
2022-12-18T01:48:46.900Z,44.30
2022-12-18T01:51:14.285Z,35.13
2022-12-18T01:53:43.289Z,32.75
2022-12-18T01:56:14.206Z,37.50
2022-12-18T01:58:45.323Z,36.47
2022-12-18T02:01:12.825Z,37.13
2022-12-18T02:03:42.968Z,40.17
2022-12-18T02:06:21.009Z,54.28
2022-12-18T02:09:05.022Z,46.25
2022-12-18T02:11:38.501Z,38.75
2022-12-18T02:14:13.745Z,38.95
2022-12-18T02:16:44.034Z,38.78
2022-12-18T02:19:22.790Z,34.70
2022-12-18T02:22:16.386Z,33.72
2022-12-18T02:24:43.479Z,35.58
2022-12-18T02:27:11.323Z,34.47
2022-12-18T02:29:57.924Z,37.50
2022-12-18T02:32:30.392Z,40.00
2022-12-18T02:34:58.127Z,40.65
2022-12-18T02:37:26.583Z,38.20
2022-12-18T02:39:54.899Z,39.83
2022-12-18T02:42:22.263Z,40.53
2022-12-18T02:44:50.986Z,32.50
2022-12-18T02:47:23.539Z,36.10
2022-12-18T02:49:59.813Z,28.98
2022-12-18T02:52:45.563Z,42.78
2022-12-18T02:55:20.874Z,40.83
2022-12-18T02:57:51.735Z,45.05
2022-12-18T03:00:30.458Z,38.65
2022-12-18T03:03:20.758Z,34.05
2022-12-18T03:05:52.158Z,35.15
2022-12-18T03:08:29.687Z,39.53
2022-12-18T03:11:15.810Z,37.30
2022-12-18T03:13:43.195Z,37.95
2022-12-18T03:16:12.698Z,37.00
2022-12-18T03:19:06.357Z,34.38
2022-12-18T03:21:41.976Z,36.90
2022-12-18T03:24:09.767Z,38.03
2022-12-18T03:26:39.410Z,40.92
2022-12-18T03:29:09.734Z,40.28
2022-12-18T03:31:41.588Z,42.85
2022-12-18T03:34:16.124Z,36.80
2022-12-18T03:36:43.274Z,41.60
2022-12-18T03:39:10.515Z,40.03
2022-12-18T03:41:45.792Z,41.28
2022-12-18T03:44:22.159Z,40.75
2022-12-18T03:46:52.106Z,36.28
2022-12-18T03:49:19.290Z,41.17
2022-12-18T03:51:55.609Z,44.13
2022-12-18T03:54:23.693Z,43.85
2022-12-18T03:56:53.351Z,34.58
2022-12-18T03:59:21.207Z,47.08
2022-12-18T04:01:49.927Z,39.67
2022-12-18T04:04:18.135Z,38.22
2022-12-18T04:06:45.618Z,44.65
2022-12-18T04:09:12.823Z,38.25
2022-12-18T04:11:39.977Z,31.08
2022-12-18T04:14:07.553Z,46.20
2022-12-18T04:16:34.901Z,23.33
2022-12-18T04:19:02.060Z,43.40
2022-12-18T04:21:29.285Z,42.97
2022-12-18T04:23:56.414Z,46.35
2022-12-18T04:26:23.787Z,45.60
2022-12-18T04:28:50.998Z,37.88
2022-12-18T04:31:18.261Z,45.92
2022-12-18T04:33:45.492Z,42.22
2022-12-18T04:36:13.476Z,53.40
2022-12-18T04:38:40.667Z,43.75
2022-12-18T04:41:07.883Z,45.45
2022-12-18T04:43:35.040Z,48.47
2022-12-18T04:46:09.161Z,50.35
2022-12-18T04:48:36.835Z,49.90
2022-12-18T04:51:04.567Z,49.38
2022-12-18T04:53:31.735Z,47.13
2022-12-18T04:56:10.387Z,49.53
2022-12-18T04:58:38.077Z,42.47
2022-12-18T05:01:05.341Z,45.83
2022-12-18T05:03:33.035Z,47.80
2022-12-18T05:06:00.291Z,48.65
2022-12-18T05:08:27.450Z,52.72
2022-12-18T05:11:05.188Z,45.53
2022-12-18T05:13:33.265Z,50.38
2022-12-18T05:16:00.649Z,49.95
2022-12-18T05:18:27.937Z,45.22
2022-12-18T05:20:55.889Z,49.40
2022-12-18T05:23:23.901Z,41.58
2022-12-18T05:25:58.456Z,37.95
2022-12-18T05:28:26.506Z,37.10
2022-12-18T05:30:54.661Z,52.47
2022-12-18T05:33:22.508Z,53.55
2022-12-18T05:35:56.561Z,48.10
2022-12-18T05:38:24.214Z,45.17
2022-12-18T05:40:52.023Z,54.03
2022-12-18T05:43:21.520Z,56.97
2022-12-18T05:45:49.365Z,50.13
2022-12-18T05:48:16.962Z,44.97
2022-12-18T05:50:46.422Z,51.78
2022-12-18T05:53:13.792Z,61.47
2022-12-18T05:55:41.797Z,66.13
2022-12-18T05:58:09.702Z,60.97
2022-12-18T06:00:40.808Z,62.13
2022-12-18T06:03:08.777Z,62.07
2022-12-18T06:05:37.784Z,62.58
2022-12-18T06:08:05.423Z,55.80
2022-12-18T06:10:33.366Z,56.08
2022-12-18T06:13:01.870Z,54.13
2022-12-18T06:15:29.357Z,48.95
2022-12-18T06:17:56.565Z,56.65
2022-12-18T06:20:26.002Z,44.30
2022-12-18T06:22:55.191Z,53.58
2022-12-18T06:25:22.521Z,34.20
2022-12-18T06:27:49.796Z,46.92
2022-12-18T06:30:17.170Z,53.92
2022-12-18T06:32:44.411Z,37.13
2022-12-18T06:35:16.097Z,57.15
2022-12-18T06:37:43.344Z,55.03
2022-12-18T06:40:10.842Z,61.80
2022-12-18T06:42:38.088Z,46.97
2022-12-18T06:45:05.675Z,61.00
2022-12-18T06:47:32.965Z,55.63
2022-12-18T06:50:00.188Z,59.72
2022-12-18T06:52:27.350Z,54.97
2022-12-18T06:54:54.513Z,57.30
2022-12-18T06:57:22.062Z,56.30
2022-12-18T06:59:49.263Z,49.85
2022-12-18T07:02:16.494Z,55.53
2022-12-18T07:04:43.699Z,46.17
2022-12-18T07:07:10.843Z,50.58
2022-12-18T07:09:38.022Z,51.67
2022-12-18T07:12:05.994Z,63.17
2022-12-18T07:14:33.315Z,62.17
2022-12-18T07:17:00.481Z,57.72
2022-12-18T07:19:27.651Z,52.05
2022-12-18T07:21:54.887Z,58.75
2022-12-18T07:24:22.091Z,57.10
2022-12-18T07:26:49.332Z,56.50
2022-12-18T07:29:16.579Z,60.35
2022-12-18T07:31:43.844Z,60.63
2022-12-18T07:34:14.603Z,61.05
2022-12-18T07:36:41.809Z,63.88
2022-12-18T07:39:10.165Z,60.72
2022-12-18T07:41:38.714Z,50.75
2022-12-18T07:44:10.404Z,65.53
2022-12-18T07:46:37.547Z,61.42
2022-12-18T07:49:04.713Z,59.65
2022-12-18T07:51:31.860Z,56.88
2022-12-18T07:53:59.025Z,54.25
2022-12-18T07:56:28.285Z,53.75
2022-12-18T07:58:56.706Z,59.10
2022-12-18T08:01:24.078Z,52.30
2022-12-18T08:03:52.091Z,47.83
2022-12-18T08:06:19.492Z,52.95
2022-12-18T08:08:49.964Z,53.95
2022-12-18T08:11:17.521Z,48.85
2022-12-18T08:13:44.669Z,54.70
2022-12-18T08:16:11.869Z,42.45
2022-12-18T08:18:39.348Z,49.88
2022-12-18T08:21:32.662Z,52.90
2022-12-18T08:24:00.970Z,49.35
2022-12-18T08:26:29.227Z,47.80
2022-12-18T08:28:57.433Z,42.45
2022-12-18T08:31:25.052Z,42.83
2022-12-18T08:33:53.239Z,45.80
2022-12-18T08:36:21.506Z,46.25
2022-12-18T08:38:48.717Z,38.90
2022-12-18T08:41:16.953Z,45.00
2022-12-18T08:44:02.967Z,45.25
2022-12-18T08:46:33.367Z,45.72
2022-12-18T08:49:00.632Z,45.92
2022-12-18T08:51:28.118Z,46.67
2022-12-18T08:53:55.552Z,34.08
2022-12-18T08:56:22.706Z,43.92
2022-12-18T08:58:52.670Z,35.10
2022-12-18T09:01:19.910Z,40.40
2022-12-18T09:03:50.906Z,42.45
2022-12-18T09:06:18.959Z,42.42
2022-12-18T09:08:46.700Z,41.33
2022-12-18T09:11:20.497Z,40.08
2022-12-18T09:13:47.659Z,41.30
2022-12-18T09:16:14.949Z,39.50
2022-12-18T09:18:42.620Z,36.30
2022-12-18T09:21:11.142Z,38.10
2022-12-18T09:23:38.335Z,38.20
2022-12-18T09:26:05.556Z,37.83
2022-12-18T09:28:32.849Z,38.05
2022-12-18T09:31:00.160Z,38.67
2022-12-18T09:33:27.446Z,39.53
2022-12-18T09:35:55.083Z,35.65
2022-12-18T09:38:24.083Z,33.05
2022-12-18T09:40:53.801Z,33.28
2022-12-18T09:43:24.121Z,35.85
2022-12-18T09:45:53.723Z,25.30
2022-12-18T09:48:23.882Z,30.67
2022-12-18T09:50:51.873Z,34.40
2022-12-18T09:53:24.411Z,33.17
2022-12-18T09:55:53.129Z,33.22
2022-12-18T09:58:32.695Z,36.13
2022-12-18T10:01:00.497Z,37.17
2022-12-18T10:03:27.800Z,29.63
2022-12-18T10:06:01.418Z,29.48
2022-12-18T10:08:44.250Z,35.78
2022-12-18T10:11:27.803Z,34.28
2022-12-18T10:14:18.231Z,27.05
2022-12-18T10:16:48.413Z,33.58
2022-12-18T10:19:15.613Z,32.53
2022-12-18T10:21:42.884Z,28.88
2022-12-18T10:24:13.110Z,27.55
2022-12-18T10:26:40.362Z,26.67
2022-12-18T10:29:14.373Z,34.28
2022-12-18T10:31:41.996Z,32.28
2022-12-18T10:34:12.855Z,31.02
2022-12-18T10:36:40.137Z,30.75
2022-12-18T10:39:17.858Z,32.65
2022-12-18T10:41:45.741Z,34.15
2022-12-18T10:44:19.178Z,28.60
2022-12-18T10:46:47.708Z,35.83
2022-12-18T10:49:23.508Z,34.95
2022-12-18T10:51:50.915Z,34.25
2022-12-18T10:54:19.756Z,26.80
2022-12-18T10:56:47.017Z,38.38
2022-12-18T10:59:15.609Z,38.25
2022-12-18T11:01:58.860Z,33.25
2022-12-18T11:04:30.830Z,34.72
2022-12-18T11:07:05.850Z,34.85
2022-12-18T11:09:37.202Z,35.58
2022-12-18T11:12:07.129Z,34.63
2022-12-18T11:14:35.775Z,34.28
2022-12-18T11:17:25.402Z,35.40
2022-12-18T11:19:57.731Z,39.13
2022-12-18T11:22:27.616Z,34.72
2022-12-18T11:25:36.618Z,31.27
2022-12-18T11:27:58.726Z,34.15
2022-12-18T11:30:25.882Z,31.00
2022-12-18T11:32:55.915Z,38.05
2022-12-18T11:35:32.286Z,35.95
2022-12-18T11:38:03.879Z,30.88
2022-12-18T11:40:41.305Z,32.83
2022-12-18T11:43:09.888Z,30.75
2022-12-18T11:45:42.002Z,30.08
2022-12-18T11:48:21.827Z,36.35
2022-12-18T11:50:53.420Z,36.95
2022-12-18T11:53:21.010Z,43.07
2022-12-18T11:56:00.595Z,30.25
2022-12-18T11:58:39.471Z,35.35
2022-12-18T12:01:18.900Z,33.03
2022-12-18T12:03:46.215Z,36.50
2022-12-18T12:06:23.789Z,37.28
2022-12-18T12:09:00.165Z,32.20
2022-12-18T12:11:56.706Z,28.08
2022-12-18T12:14:32.707Z,40.08
2022-12-18T12:17:18.394Z,36.33
2022-12-18T12:19:50.110Z,27.92
2022-12-18T12:22:20.266Z,33.25
2022-12-18T12:24:47.411Z,35.33
2022-12-18T12:27:20.528Z,39.22
2022-12-18T12:30:08.463Z,32.22
2022-12-18T12:32:38.968Z,35.40
2022-12-18T12:35:25.104Z,32.42
2022-12-18T12:38:11.181Z,37.22
2022-12-18T12:40:52.475Z,33.40
2022-12-18T12:43:43.333Z,35.47
2022-12-18T12:46:18.131Z,32.38
2022-12-18T12:48:48.692Z,36.25
2022-12-18T12:51:21.253Z,34.78
2022-12-18T12:56:17.302Z,34.88
2022-12-18T12:59:03.744Z,35.78
2022-12-18T13:01:49.460Z,32.03
2022-12-18T13:04:22.999Z,35.30
2022-12-18T13:07:08.539Z,33.13
2022-12-18T13:09:38.253Z,36.78
2022-12-18T13:12:25.373Z,38.30
2022-12-18T13:14:52.612Z,36.72
2022-12-18T13:17:22.677Z,36.72
2022-12-18T13:19:52.189Z,35.00
2022-12-18T13:22:26.803Z,34.35
2022-12-18T13:24:54.015Z,34.97
2022-12-18T13:27:41.290Z,35.35
2022-12-18T13:30:37.613Z,36.00
2022-12-18T13:33:22.775Z,39.17
2022-12-18T13:35:50.248Z,36.80
2022-12-18T13:38:36.719Z,40.08
2022-12-18T13:41:06.000Z,37.65
2022-12-18T13:43:36.201Z,30.70
2022-12-18T13:46:03.425Z,37.25
2022-12-18T13:48:32.096Z,34.35
2022-12-18T13:51:02.996Z,38.50
2022-12-18T13:53:49.935Z,34.85
2022-12-18T13:56:18.350Z,39.67
2022-12-18T13:58:45.712Z,39.83
2022-12-18T14:01:24.027Z,36.33
2022-12-18T14:04:10.286Z,40.72
2022-12-18T14:06:37.845Z,37.30
2022-12-18T14:09:05.027Z,37.10
2022-12-18T14:11:36.776Z,34.53
2022-12-18T14:14:08.377Z,35.97
2022-12-18T14:16:35.828Z,35.50
2022-12-18T14:19:11.750Z,33.40
2022-12-18T14:21:46.880Z,32.10
2022-12-18T14:24:16.782Z,33.63
2022-12-18T14:26:47.063Z,36.92
2022-12-18T14:29:24.388Z,41.05
2022-12-18T14:32:16.599Z,36.28
2022-12-18T14:34:49.338Z,39.65
2022-12-18T14:37:17.552Z,38.60
2022-12-18T14:39:58.990Z,41.72
2022-12-18T14:42:29.131Z,38.65
2022-12-18T14:45:15.420Z,42.63
2022-12-18T14:47:46.661Z,43.05
2022-12-18T14:50:15.890Z,42.10
2022-12-18T14:52:43.101Z,42.22
2022-12-18T14:55:17.394Z,43.10
2022-12-18T14:57:45.535Z,46.30
2022-12-18T15:00:39.079Z,43.85
2022-12-18T15:03:09.567Z,41.63
2022-12-18T15:05:37.273Z,46.95
2022-12-18T15:08:04.566Z,37.92
2022-12-18T15:10:33.289Z,44.10
2022-12-18T15:13:00.758Z,41.28
2022-12-18T15:15:37.297Z,42.63
2022-12-18T15:18:09.863Z,42.65
2022-12-18T15:20:43.113Z,42.28
2022-12-18T15:23:19.536Z,42.53
2022-12-18T15:25:47.741Z,38.47
2022-12-18T15:28:28.955Z,41.70
2022-12-18T15:31:02.284Z,39.28
2022-12-18T15:33:33.057Z,42.53
2022-12-18T15:36:05.253Z,42.42
2022-12-18T15:38:32.843Z,45.28
2022-12-18T15:41:00.558Z,42.10
2022-12-18T15:43:38.129Z,40.83
2022-12-18T15:46:06.976Z,45.08
2022-12-18T15:48:39.290Z,44.65
2022-12-18T15:53:34.898Z,46.40
2022-12-18T15:56:20.652Z,42.75
2022-12-18T15:58:47.910Z,44.28
2022-12-18T16:01:15.336Z,48.63
2022-12-18T16:03:42.970Z,45.70
2022-12-18T16:06:11.057Z,49.55
2022-12-18T16:08:38.288Z,42.95
2022-12-18T16:11:07.270Z,49.45
2022-12-18T16:13:34.565Z,48.50
2022-12-18T16:16:01.935Z,50.05
2022-12-18T16:18:29.089Z,54.17
2022-12-18T16:20:56.235Z,43.40
2022-12-18T16:23:23.362Z,43.60
2022-12-18T16:25:50.534Z,38.97
2022-12-18T16:28:17.684Z,42.83
2022-12-18T16:30:45.879Z,36.90
2022-12-18T16:33:13.227Z,46.25
2022-12-18T16:35:40.365Z,42.10
2022-12-18T16:38:07.567Z,44.38
2022-12-18T16:40:54.762Z,38.70
2022-12-18T16:43:21.979Z,43.88
2022-12-18T16:45:50.393Z,48.72
2022-12-18T16:48:18.270Z,48.08
2022-12-18T16:50:45.391Z,52.45
2022-12-18T16:53:12.609Z,53.72
2022-12-18T16:55:39.757Z,50.85
2022-12-18T16:58:06.957Z,48.22
2022-12-18T17:00:34.284Z,47.22
2022-12-18T17:03:01.584Z,47.38
2022-12-18T17:05:28.860Z,51.60
2022-12-18T17:07:56.079Z,49.85
2022-12-18T17:10:23.187Z,49.75
2022-12-18T17:12:51.873Z,47.50
2022-12-18T17:15:18.983Z,55.80
2022-12-18T17:17:47.130Z,53.42
2022-12-18T17:20:14.303Z,53.83
2022-12-18T17:22:41.482Z,49.35
2022-12-18T17:25:09.067Z,47.58
2022-12-18T17:27:36.238Z,48.75
2022-12-18T17:30:03.613Z,51.50
2022-12-18T17:32:30.774Z,55.05
2022-12-18T17:35:00.522Z,50.58
2022-12-18T17:37:31.192Z,50.78
2022-12-18T17:39:58.340Z,52.00
2022-12-18T17:42:26.394Z,48.97
2022-12-18T17:44:53.522Z,48.70
2022-12-18T17:47:20.732Z,49.85
2022-12-18T17:49:48.306Z,48.08
2022-12-18T17:52:15.550Z,55.75
2022-12-18T17:54:43.794Z,50.03
2022-12-18T17:57:11.074Z,57.10
2022-12-18T17:59:38.238Z,49.30
2022-12-18T18:02:05.615Z,50.83
2022-12-18T18:04:33.695Z,53.28
2022-12-18T18:07:00.841Z,54.05
2022-12-18T18:09:28.146Z,55.72
2022-12-18T18:12:13.779Z,54.13
2022-12-18T18:14:41.037Z,59.22
2022-12-18T18:17:08.327Z,51.67
2022-12-18T18:19:35.741Z,50.78
2022-12-18T18:22:03.668Z,46.65
2022-12-18T18:24:31.413Z,48.53
2022-12-18T18:27:01.406Z,49.22
2022-12-18T18:29:32.226Z,48.22
2022-12-18T18:31:59.756Z,47.60
2022-12-18T18:34:28.664Z,47.50
2022-12-18T18:36:55.845Z,47.22
2022-12-18T18:39:23.155Z,45.75
2022-12-18T18:41:50.605Z,42.65
2022-12-18T18:44:18.519Z,43.60
2022-12-18T18:46:46.088Z,43.53
2022-12-18T18:49:13.926Z,45.65
2022-12-18T18:51:41.619Z,45.05
2022-12-18T18:54:09.446Z,48.35
2022-12-18T18:59:30.911Z,48.58
2022-12-18T19:01:59.961Z,51.90
2022-12-18T19:06:58.557Z,47.65
2022-12-18T19:09:26.625Z,45.78
2022-12-18T19:12:12.786Z,44.15
2022-12-18T19:14:39.948Z,38.25
2022-12-18T19:17:07.203Z,49.55
2022-12-18T19:19:34.461Z,45.95
2022-12-18T19:22:01.697Z,50.20
2022-12-18T19:24:29.590Z,43.53
2022-12-18T19:26:58.192Z,40.03
2022-12-18T19:29:25.719Z,43.70
2022-12-18T19:31:53.187Z,41.35
2022-12-18T19:34:20.475Z,41.78
2022-12-18T19:36:47.668Z,46.00
2022-12-18T19:39:16.652Z,39.15
2022-12-18T19:41:45.411Z,37.50
2022-12-18T19:44:13.776Z,37.05
2022-12-18T19:46:42.385Z,42.45
2022-12-18T19:49:16.283Z,43.95
2022-12-18T19:51:45.493Z,38.85
2022-12-18T19:54:17.182Z,46.53
2022-12-18T19:56:45.058Z,36.42
2022-12-18T19:59:12.819Z,36.08
2022-12-18T20:01:40.331Z,37.17
2022-12-18T20:04:07.830Z,39.05
2022-12-18T20:06:36.701Z,39.88
2022-12-18T20:09:05.479Z,34.88
2022-12-18T20:11:33.334Z,43.47
2022-12-18T20:14:04.008Z,42.58
2022-12-18T20:16:31.486Z,35.30
2022-12-18T20:18:59.227Z,40.03
2022-12-18T20:21:26.495Z,39.30
2022-12-18T20:23:55.713Z,44.13
2022-12-18T20:26:23.411Z,44.92
2022-12-18T20:28:50.631Z,50.05
2022-12-18T20:31:17.904Z,49.97
2022-12-18T20:33:47.685Z,43.28
2022-12-18T20:36:22.496Z,37.95
2022-12-18T20:38:54.652Z,39.40
2022-12-18T20:41:24.836Z,43.20
2022-12-18T20:43:52.131Z,39.05
2022-12-18T20:46:19.569Z,38.13
2022-12-18T20:48:47.872Z,36.67
2022-12-18T20:51:16.726Z,38.75
2022-12-18T20:53:44.439Z,37.67
2022-12-18T20:56:21.180Z,45.70
2022-12-18T20:58:49.698Z,32.90
2022-12-18T21:01:18.835Z,34.42
2022-12-18T21:03:46.769Z,33.75
2022-12-18T21:06:15.362Z,42.90
2022-12-18T21:08:42.690Z,38.10
2022-12-18T21:11:32.530Z,39.83
2022-12-18T21:14:00.272Z,47.03
2022-12-18T21:16:27.641Z,45.50
2022-12-18T21:18:56.078Z,39.78
2022-12-18T21:21:26.802Z,37.78
2022-12-18T21:23:54.501Z,47.75
2022-12-18T21:26:23.658Z,44.83
2022-12-18T21:28:58.107Z,42.55
2022-12-18T21:31:26.311Z,44.05
2022-12-18T21:33:54.112Z,38.33
2022-12-18T21:36:27.121Z,37.60
2022-12-18T21:38:55.247Z,40.83
2022-12-18T21:41:42.290Z,39.88
2022-12-18T21:44:11.429Z,38.08
2022-12-18T21:46:39.704Z,36.28
2022-12-18T21:49:09.361Z,39.58
2022-12-18T21:51:37.002Z,31.17
2022-12-18T21:54:04.832Z,34.10
2022-12-18T21:56:45.243Z,29.17
2022-12-18T21:59:16.600Z,33.45
2022-12-18T22:01:44.015Z,30.80
2022-12-18T22:04:11.634Z,31.52
2022-12-18T22:06:39.069Z,33.60
2022-12-18T22:09:06.808Z,35.25
2022-12-18T22:11:34.052Z,35.38
2022-12-18T22:14:01.183Z,30.50
2022-12-18T22:16:28.765Z,37.80
2022-12-18T22:18:59.925Z,36.67
2022-12-18T22:21:29.729Z,40.17
2022-12-18T22:23:58.052Z,35.20
2022-12-18T22:26:26.013Z,34.28
2022-12-18T22:29:11.971Z,35.05
2022-12-18T22:31:39.343Z,37.75
2022-12-18T22:34:06.989Z,35.35
2022-12-18T22:36:41.720Z,38.58
2022-12-18T22:39:11.584Z,33.38
2022-12-18T22:41:38.901Z,41.80
2022-12-18T22:44:06.195Z,44.97
2022-12-18T22:46:38.732Z,40.55
2022-12-18T22:49:05.919Z,39.80
2022-12-18T22:51:33.051Z,38.00
2022-12-18T22:54:01.273Z,35.83
2022-12-18T22:56:29.311Z,39.38
2022-12-18T22:58:56.445Z,40.45
2022-12-18T23:01:26.929Z,38.53
2022-12-18T23:03:54.684Z,36.75
2022-12-18T23:06:22.649Z,47.95
2022-12-18T23:08:55.721Z,38.85
2022-12-18T23:11:23.257Z,38.33
2022-12-18T23:13:50.537Z,32.85
2022-12-18T23:16:21.855Z,31.67
2022-12-18T23:18:53.549Z,35.03
2022-12-18T23:21:21.184Z,40.28
2022-12-18T23:23:48.645Z,32.75
2022-12-18T23:26:17.601Z,29.02
2022-12-18T23:28:45.054Z,31.20
2022-12-18T23:31:17.139Z,34.17
2022-12-18T23:33:45.058Z,36.40
2022-12-18T23:36:12.863Z,30.48
2022-12-18T23:38:40.473Z,29.85
2022-12-18T23:41:11.550Z,33.28
2022-12-18T23:43:39.003Z,34.22
2022-12-18T23:46:19.558Z,31.08
2022-12-18T23:48:47.290Z,36.70
2022-12-18T23:51:15.326Z,37.83
2022-12-18T23:53:42.780Z,35.63
2022-12-18T23:56:11.036Z,40.35
2022-12-18T23:58:38.946Z,29.25
